createdAt,value
2022-08-01T00:00:29.594Z,81.39
2022-08-01T00:01:31.499Z,81.34
2022-08-01T00:02:33.159Z,81.79
2022-08-01T00:03:34.700Z,81.61
2022-08-01T00:04:36.300Z,81.68
2022-08-01T00:05:37.875Z,83.01
2022-08-01T00:06:39.516Z,82.18
2022-08-01T00:07:41.460Z,82.10
2022-08-01T00:08:43.125Z,82.34
2022-08-01T00:09:44.936Z,82.68
2022-08-01T00:10:46.601Z,83.20
2022-08-01T00:11:48.164Z,82.51
2022-08-01T00:13:01.262Z,82.92
2022-08-01T00:14:02.932Z,83.02
2022-08-01T00:15:06.541Z,82.93
2022-08-01T00:16:08.337Z,83.03
2022-08-01T00:17:09.931Z,82.73
2022-08-01T00:18:11.469Z,83.29
2022-08-01T00:19:13.017Z,82.67
2022-08-01T00:20:15.455Z,83.79
2022-08-01T00:21:17.639Z,83.47
2022-08-01T00:22:19.307Z,83.27
2022-08-01T00:23:20.875Z,84.76
2022-08-01T00:24:22.646Z,84.86
2022-08-01T00:25:33.981Z,84.73
2022-08-01T00:26:36.179Z,85.06
2022-08-01T00:27:38.065Z,84.27
2022-08-01T00:28:39.818Z,84.13
2022-08-01T00:30:12.533Z,84.00
2022-08-01T00:31:03.372Z,84.04
2022-08-01T00:32:05.910Z,83.95
2022-08-01T00:33:07.612Z,84.41
2022-08-01T00:34:09.174Z,85.08
2022-08-01T00:35:11.567Z,84.12
2022-08-01T00:36:13.264Z,84.62
2022-08-01T00:37:16.074Z,83.94
2022-08-01T00:38:17.888Z,85.05
2022-08-01T00:39:19.414Z,85.57
2022-08-01T00:40:21.294Z,85.03
2022-08-01T00:41:22.864Z,84.85
2022-08-01T00:42:24.496Z,84.95
2022-08-01T00:43:26.135Z,84.82
2022-08-01T00:44:28.125Z,84.75
2022-08-01T00:45:29.736Z,84.78
2022-08-01T00:46:31.449Z,85.59
2022-08-01T00:47:33.043Z,85.33
2022-08-01T00:48:34.777Z,85.32
2022-08-01T00:49:36.720Z,85.12
2022-08-01T00:50:40.471Z,85.97
2022-08-01T00:51:42.186Z,85.94
2022-08-01T00:52:50.103Z,85.58
2022-08-01T00:53:54.077Z,85.99
2022-08-01T00:54:56.697Z,86.06
2022-08-01T00:55:58.359Z,85.59
2022-08-01T00:57:00.230Z,85.43
2022-08-01T00:58:04.839Z,85.58
2022-08-01T00:59:08.727Z,85.89
2022-08-01T01:00:11.256Z,85.82
2022-08-01T01:01:14.407Z,85.69
2022-08-01T01:02:17.138Z,86.24
2022-08-01T01:03:19.151Z,86.35
2022-08-01T01:04:21.083Z,85.67
2022-08-01T01:05:22.749Z,85.66
2022-08-01T01:07:03.258Z,87.02
2022-08-01T01:08:20.630Z,86.25
2022-08-01T01:09:53.029Z,86.39
2022-08-01T01:11:14.551Z,86.92
2022-08-01T01:12:46.976Z,86.47
2022-08-01T01:13:58.359Z,87.25
2022-08-01T01:15:02.615Z,87.54
2022-08-01T01:16:12.203Z,87.29
2022-08-01T01:17:40.686Z,87.06
2022-08-01T01:18:47.546Z,86.67
2022-08-01T01:19:55.073Z,86.87
2022-08-01T01:21:18.237Z,86.96
2022-08-01T01:22:48.634Z,87.23
2022-08-01T01:24:15.111Z,87.06
2022-08-01T01:25:31.784Z,87.45
2022-08-01T01:26:52.186Z,87.76
2022-08-01T01:28:10.982Z,87.68
2022-08-01T01:29:29.156Z,88.72
2022-08-01T01:30:34.093Z,88.69
2022-08-01T01:32:10.880Z,88.32
2022-08-01T01:33:15.307Z,89.90
2022-08-01T01:34:19.537Z,89.35
2022-08-01T01:35:25.364Z,89.30
2022-08-01T01:36:28.442Z,89.50
2022-08-01T01:37:32.883Z,89.30
2022-08-01T01:38:39.154Z,89.00
2022-08-01T01:39:45.387Z,89.36
2022-08-01T01:40:58.161Z,89.47
2022-08-01T01:42:00.926Z,89.54
2022-08-01T01:43:02.505Z,89.45
2022-08-01T01:44:05.742Z,90.65
2022-08-01T01:45:08.538Z,90.25
2022-08-01T01:46:11.972Z,89.94
2022-08-01T01:47:15.678Z,89.94
2022-08-01T01:48:22.369Z,90.63
2022-08-01T01:49:27.012Z,90.64
2022-08-01T01:50:29.707Z,90.66
2022-08-01T01:51:32.685Z,90.53
2022-08-01T01:52:35.698Z,90.48
2022-08-01T01:53:37.830Z,90.96
2022-08-01T01:54:43.519Z,91.67
2022-08-01T01:55:50.155Z,91.46
2022-08-01T01:56:53.329Z,91.67
2022-08-01T01:57:57.038Z,91.39
2022-08-01T01:59:02.046Z,91.46
2022-08-01T02:00:04.860Z,92.17
2022-08-01T02:01:14.564Z,91.67
2022-08-01T02:02:17.929Z,92.09
2022-08-01T02:03:21.674Z,91.64
2022-08-01T02:04:25.499Z,92.13
2022-08-01T02:05:29.113Z,92.56
2022-08-01T02:06:32.894Z,92.48
2022-08-01T02:07:35.708Z,92.08
2022-08-01T02:08:39.630Z,92.59
2022-08-01T02:09:43.902Z,93.06
2022-08-01T02:11:05.565Z,92.74
2022-08-01T02:12:09.201Z,92.54
2022-08-01T02:13:11.988Z,93.07
2022-08-01T02:14:15.121Z,93.70
2022-08-01T02:15:18.778Z,93.23
2022-08-01T02:16:22.470Z,93.14
2022-08-01T02:17:25.715Z,93.29
2022-08-01T02:18:28.135Z,93.05
2022-08-01T02:19:30.732Z,93.05
2022-08-01T02:20:37.661Z,93.74
2022-08-01T02:21:47.084Z,93.54
2022-08-01T02:22:54.277Z,93.90
2022-08-01T02:24:05.695Z,93.86
2022-08-01T02:25:23.769Z,94.06
2022-08-01T02:26:25.814Z,93.48
2022-08-01T02:27:48.656Z,93.95
2022-08-01T02:29:06.548Z,94.99
2022-08-01T02:30:11.358Z,94.36
2022-08-01T02:31:17.760Z,94.38
2022-08-01T02:32:51.146Z,94.76
2022-08-01T02:34:05.610Z,95.46
2022-08-01T02:35:14.177Z,94.92
2022-08-01T02:36:29.068Z,94.52
2022-08-01T02:37:37.281Z,94.46
2022-08-01T02:38:47.910Z,94.39
2022-08-01T02:39:53.587Z,94.64
2022-08-01T02:40:58.968Z,95.23
2022-08-01T02:42:05.809Z,95.02
2022-08-01T02:43:10.194Z,95.12
2022-08-01T02:44:17.086Z,95.19
2022-08-01T02:45:21.652Z,95.81
2022-08-01T02:46:36.276Z,95.79
2022-08-01T02:47:41.026Z,96.05
2022-08-01T02:48:43.852Z,95.89
2022-08-01T02:49:47.588Z,96.12
2022-08-01T02:50:59.412Z,95.79
2022-08-01T02:52:05.173Z,96.04
2022-08-01T02:53:11.091Z,94.45
2022-08-01T02:54:13.141Z,94.47
2022-08-01T02:55:15.756Z,95.25
2022-08-01T02:56:19.936Z,96.15
2022-08-01T02:57:23.439Z,95.95
2022-08-01T02:58:31.304Z,95.60
2022-08-01T02:59:36.020Z,95.80
2022-08-01T03:00:42.136Z,95.60
2022-08-01T03:01:47.091Z,95.29
2022-08-01T03:02:52.605Z,95.37
2022-08-01T03:03:54.417Z,95.52
2022-08-01T03:04:57.355Z,95.53
2022-08-01T03:05:59.214Z,95.42
2022-08-01T03:07:03.932Z,95.46
2022-08-01T03:08:11.964Z,95.83
2022-08-01T03:09:17.866Z,95.97
2022-08-01T03:10:20.520Z,96.57
2022-08-01T03:11:25.350Z,96.22
2022-08-01T03:12:30.395Z,96.56
2022-08-01T03:13:34.189Z,97.66
2022-08-01T03:14:38.929Z,97.71
2022-08-01T03:15:42.786Z,97.09
2022-08-01T03:16:46.959Z,96.83
2022-08-01T03:17:50.429Z,97.39
2022-08-01T03:18:54.752Z,97.24
2022-08-01T03:19:59.784Z,97.11
2022-08-01T03:21:02.890Z,96.83
2022-08-01T03:22:09.084Z,96.76
2022-08-01T03:23:12.991Z,97.45
2022-08-01T03:24:15.501Z,98.14
2022-08-01T03:25:18.538Z,97.45
2022-08-01T03:26:20.668Z,96.97
2022-08-01T03:27:25.211Z,97.71
2022-08-01T03:28:29.652Z,96.87
2022-08-01T03:29:34.055Z,96.66
2022-08-01T03:30:38.899Z,96.96
2022-08-01T03:31:44.503Z,97.30
2022-08-01T03:32:56.529Z,97.49
2022-08-01T03:33:59.899Z,97.49
2022-08-01T03:35:04.953Z,97.49
2022-08-01T03:36:10.912Z,98.43
2022-08-01T03:37:15.738Z,98.11
2022-08-01T03:38:21.239Z,98.11
2022-08-01T03:39:29.029Z,97.92
2022-08-01T03:40:54.176Z,98.10
2022-08-01T03:41:58.859Z,98.05
2022-08-01T03:43:08.567Z,98.51
2022-08-01T03:44:16.540Z,98.67
2022-08-01T03:45:31.714Z,99.01
2022-08-01T03:46:53.122Z,98.55
2022-08-01T03:48:09.732Z,98.65
2022-08-01T03:49:30.605Z,98.75
2022-08-01T03:50:34.913Z,98.68
2022-08-01T03:51:39.547Z,98.93
2022-08-01T03:52:44.402Z,98.46
2022-08-01T03:53:49.871Z,99.02
2022-08-01T03:54:54.518Z,99.03
2022-08-01T03:55:58.495Z,99.00
2022-08-01T03:57:01.629Z,99.88
2022-08-01T03:58:08.300Z,99.31
2022-08-01T03:59:11.598Z,99.34
2022-08-01T04:00:13.934Z,98.42
2022-08-01T04:01:16.694Z,98.91
2022-08-01T04:02:22.722Z,99.40
2022-08-01T04:03:25.911Z,99.51
2022-08-01T04:04:29.241Z,98.99
2022-08-01T04:05:32.349Z,98.65
2022-08-01T04:06:33.946Z,98.73
2022-08-01T04:07:40.100Z,98.70
2022-08-01T04:08:42.839Z,98.56
2022-08-01T04:09:44.387Z,98.55
2022-08-01T04:10:46.064Z,99.41
2022-08-01T04:11:48.216Z,100.00
2022-08-01T04:12:50.161Z,99.75
2022-08-01T04:13:55.817Z,99.19
2022-08-01T04:14:57.365Z,98.87
2022-08-01T04:15:59.303Z,99.09
2022-08-01T04:17:01.153Z,98.72
2022-08-01T04:18:02.727Z,97.66
2022-08-01T04:19:08.465Z,97.49
2022-08-01T04:20:12.056Z,97.80
2022-08-01T04:21:14.555Z,97.26
2022-08-01T04:22:16.564Z,97.84
2022-08-01T04:23:25.797Z,96.98
2022-08-01T04:24:29.948Z,96.96
2022-08-01T04:25:35.851Z,96.86
2022-08-01T04:26:39.529Z,97.37
2022-08-01T04:27:50.613Z,97.18
2022-08-01T04:28:56.002Z,96.78
2022-08-01T04:29:59.926Z,96.42
2022-08-01T04:31:02.447Z,96.37
2022-08-01T04:32:06.379Z,96.66
2022-08-01T04:33:10.563Z,96.43
2022-08-01T04:34:15.235Z,96.84
2022-08-01T04:35:23.588Z,96.51
2022-08-01T04:36:45.303Z,95.99
2022-08-01T04:37:49.322Z,95.80
2022-08-01T04:38:56.493Z,96.18
2022-08-01T04:40:00.466Z,96.03
2022-08-01T04:41:09.191Z,95.91
2022-08-01T04:42:12.921Z,95.65
2022-08-01T04:43:15.349Z,94.83
2022-08-01T04:44:17.543Z,94.68
2022-08-01T04:45:19.530Z,95.21
2022-08-01T04:46:22.354Z,95.01
2022-08-01T04:47:24.559Z,96.12
2022-08-01T04:48:27.327Z,95.32
2022-08-01T04:49:29.053Z,94.56
2022-08-01T04:50:32.788Z,94.64
2022-08-01T04:51:34.471Z,95.71
2022-08-01T04:52:37.737Z,93.96
2022-08-01T04:53:39.335Z,93.27
2022-08-01T04:54:41.246Z,93.62
2022-08-01T04:55:42.775Z,93.18
2022-08-01T04:56:44.371Z,92.82
2022-08-01T04:57:47.722Z,92.62
2022-08-01T04:59:09.476Z,92.30
2022-08-01T05:00:17.531Z,92.05
2022-08-01T05:01:19.113Z,92.07
2022-08-01T05:02:20.697Z,91.87
2022-08-01T05:03:22.355Z,92.15
2022-08-01T05:04:24.221Z,92.13
2022-08-01T05:05:27.172Z,92.23
2022-08-01T05:06:28.730Z,92.11
2022-08-01T05:07:30.559Z,91.97
2022-08-01T05:08:32.225Z,91.42
2022-08-01T05:09:34.555Z,91.42
2022-08-01T05:10:36.124Z,91.27
2022-08-01T05:11:37.693Z,90.76
2022-08-01T05:12:39.342Z,90.60
2022-08-01T05:13:41.657Z,90.36
2022-08-01T05:14:43.520Z,89.95
2022-08-01T05:15:45.280Z,90.20
2022-08-01T05:16:46.933Z,89.77
2022-08-01T05:17:48.531Z,88.59
2022-08-01T05:18:50.082Z,87.81
2022-08-01T05:19:51.656Z,87.56
2022-08-01T05:20:53.319Z,86.75
2022-08-01T05:21:54.873Z,86.91
2022-08-01T05:23:02.125Z,86.50
2022-08-01T05:24:04.436Z,86.40
2022-08-01T05:25:07.584Z,86.17
2022-08-01T05:26:11.065Z,85.92
2022-08-01T05:27:13.601Z,85.80
2022-08-01T05:28:19.042Z,86.08
2022-08-01T05:29:20.932Z,86.00
2022-08-01T05:30:22.763Z,85.52
2022-08-01T05:31:24.525Z,84.02
2022-08-01T05:32:26.055Z,83.22
2022-08-01T05:33:27.597Z,82.79
2022-08-01T05:34:29.382Z,82.57
2022-08-01T05:35:48.599Z,82.14
2022-08-01T05:36:54.112Z,80.95
2022-08-01T05:37:58.498Z,80.65
2022-08-01T05:39:00.139Z,80.95
2022-08-01T05:40:02.035Z,81.02
2022-08-01T05:41:03.718Z,80.08
2022-08-01T05:42:05.445Z,81.08
2022-08-01T05:43:07.255Z,80.72
2022-08-01T05:44:09.729Z,79.49
2022-08-01T05:45:11.611Z,79.16
2022-08-01T05:46:16.072Z,78.01
2022-08-01T05:47:18.315Z,77.87
2022-08-01T05:48:19.979Z,77.68
2022-08-01T05:49:21.608Z,77.13
2022-08-01T05:50:23.441Z,76.64
2022-08-01T05:51:25.872Z,76.51
2022-08-01T05:52:27.562Z,76.76
2022-08-01T05:53:29.398Z,76.51
2022-08-01T05:54:31.079Z,76.41
2022-08-01T05:55:32.746Z,76.52
2022-08-01T05:56:34.445Z,76.69
2022-08-01T05:57:35.965Z,76.32
2022-08-01T05:58:40.976Z,77.03
2022-08-01T05:59:42.513Z,75.37
2022-08-01T06:00:44.128Z,75.36
2022-08-01T06:01:45.996Z,76.40
2022-08-01T06:02:47.558Z,76.57
2022-08-01T06:03:49.139Z,74.88
2022-08-01T06:04:50.699Z,75.41
2022-08-01T06:05:53.537Z,74.56
2022-08-01T06:06:55.076Z,73.64
2022-08-01T06:07:56.641Z,74.53
2022-08-01T06:08:58.295Z,73.42
2022-08-01T06:09:59.816Z,73.01
2022-08-01T06:11:02.674Z,73.96
2022-08-01T06:12:04.968Z,74.33
2022-08-01T06:13:06.796Z,72.99
2022-08-01T06:14:08.587Z,73.33
2022-08-01T06:15:10.805Z,71.92
2022-08-01T06:16:12.391Z,71.40
2022-08-01T06:17:13.953Z,72.30
2022-08-01T06:18:16.267Z,71.87
2022-08-01T06:19:17.850Z,70.02
2022-08-01T06:20:19.604Z,69.57
2022-08-01T06:21:21.242Z,69.94
2022-08-01T06:22:22.920Z,70.88
2022-08-01T06:23:32.571Z,70.06
2022-08-01T06:24:34.657Z,68.88
2022-08-01T06:25:36.611Z,69.51
2022-08-01T06:26:38.229Z,68.13
2022-08-01T06:27:39.940Z,68.04
2022-08-01T06:28:41.746Z,66.90
2022-08-01T06:29:51.295Z,68.36
2022-08-01T06:30:55.950Z,69.20
2022-08-01T06:31:57.548Z,66.96
2022-08-01T06:33:00.889Z,66.71
2022-08-01T06:34:02.711Z,67.99
2022-08-01T06:35:04.785Z,66.00
2022-08-01T06:37:07.907Z,65.39
2022-08-01T06:38:10.249Z,64.58
2022-08-01T06:39:11.847Z,63.94
2022-08-01T06:40:17.135Z,64.74
2022-08-01T06:41:19.276Z,64.69
2022-08-01T06:42:20.916Z,64.41
2022-08-01T06:43:22.556Z,63.36
2022-08-01T06:44:24.166Z,61.82
2022-08-01T06:45:27.809Z,61.02
2022-08-01T06:46:32.332Z,60.53
2022-08-01T06:47:34.372Z,60.73
2022-08-01T06:48:40.253Z,59.93
2022-08-01T06:49:41.904Z,58.78
2022-08-01T06:50:43.619Z,58.01
2022-08-01T06:51:45.270Z,57.88
2022-08-01T06:52:47.182Z,57.95
2022-08-01T06:53:48.879Z,56.94
2022-08-01T06:54:51.159Z,56.61
2022-08-01T06:55:52.795Z,56.28
2022-08-01T06:56:54.402Z,56.66
2022-08-01T06:57:56.112Z,56.79
2022-08-01T06:59:01.808Z,55.12
2022-08-01T07:00:12.470Z,55.28
2022-08-01T07:01:14.391Z,56.17
2022-08-01T07:02:16.271Z,55.59
2022-08-01T07:03:18.044Z,55.83
2022-08-01T07:04:19.725Z,55.54
2022-08-01T07:05:22.313Z,54.92
2022-08-01T07:06:25.163Z,54.32
2022-08-01T07:07:28.103Z,55.03
2022-08-01T07:08:29.869Z,56.20
2022-08-01T07:09:31.522Z,56.68
2022-08-01T07:10:33.111Z,56.70
2022-08-01T07:11:34.777Z,56.28
2022-08-01T07:12:38.984Z,56.37
2022-08-01T07:13:45.490Z,55.96
2022-08-01T07:14:47.731Z,56.55
2022-08-01T07:15:49.421Z,56.86
2022-08-01T07:16:51.354Z,57.16
2022-08-01T07:17:53.456Z,57.35
2022-08-01T07:18:54.998Z,57.03
2022-08-01T07:19:57.893Z,58.25
2022-08-01T07:20:59.606Z,57.59
2022-08-01T07:22:01.146Z,58.43
2022-08-01T07:23:05.972Z,58.86
2022-08-01T07:24:13.855Z,58.80
2022-08-01T07:25:15.814Z,60.21
2022-08-01T07:26:18.504Z,59.64
2022-08-01T07:27:24.369Z,59.59
2022-08-01T07:28:28.806Z,59.95
2022-08-01T07:29:30.427Z,60.60
2022-08-01T07:30:32.038Z,60.33
2022-08-01T07:31:33.677Z,60.47
2022-08-01T07:32:37.206Z,59.79
2022-08-01T07:33:48.432Z,60.48
2022-08-01T07:34:51.142Z,59.95
2022-08-01T07:35:52.796Z,59.27
2022-08-01T07:36:54.622Z,59.78
2022-08-01T07:37:56.208Z,58.37
2022-08-01T07:38:57.897Z,58.45
2022-08-01T07:39:59.967Z,57.17
2022-08-01T07:41:01.628Z,56.59
2022-08-01T07:42:07.197Z,55.61
2022-08-01T07:43:10.071Z,55.66
2022-08-01T07:44:11.738Z,56.80
2022-08-01T07:45:15.083Z,54.52
2022-08-01T07:46:17.326Z,55.71
2022-08-01T07:47:25.555Z,56.22
2022-08-01T07:48:28.033Z,55.91
2022-08-01T07:49:30.080Z,56.75
2022-08-01T07:50:34.174Z,56.26
2022-08-01T07:51:36.018Z,55.21
2022-08-01T07:52:37.657Z,54.29
2022-08-01T07:53:39.273Z,53.75
2022-08-01T07:54:40.819Z,53.08
2022-08-01T07:55:42.480Z,52.59
2022-08-01T07:56:47.648Z,50.97
2022-08-01T07:57:49.299Z,49.20
2022-08-01T07:58:51.517Z,48.27
2022-08-01T07:59:53.171Z,45.93
2022-08-01T08:00:54.775Z,44.52
2022-08-01T08:01:56.465Z,43.84
2022-08-01T08:03:00.233Z,44.48
2022-08-01T08:04:01.892Z,43.37
2022-08-01T08:05:04.793Z,44.81
2022-08-01T08:06:07.423Z,47.04
2022-08-01T08:07:09.508Z,48.88
2022-08-01T08:08:12.411Z,49.65
2022-08-01T08:09:15.623Z,51.06
2022-08-01T08:10:17.336Z,50.82
2022-08-01T08:11:18.858Z,50.36
2022-08-01T08:12:28.462Z,47.07
2022-08-01T08:13:31.265Z,44.57
2022-08-01T08:14:33.374Z,44.92
2022-08-01T08:15:35.003Z,43.54
2022-08-01T08:16:36.573Z,43.44
2022-08-01T08:17:38.211Z,41.90
2022-08-01T08:18:39.843Z,39.11
2022-08-01T08:19:41.456Z,41.71
2022-08-01T08:20:44.298Z,41.19
2022-08-01T08:21:46.147Z,41.71
2022-08-01T08:22:47.730Z,43.32
2022-08-01T08:24:07.936Z,46.06
2022-08-01T08:25:10.941Z,48.57
2022-08-01T08:26:13.527Z,48.09
2022-08-01T08:27:15.853Z,48.44
2022-08-01T08:28:17.481Z,49.17
2022-08-01T08:29:19.065Z,47.82
2022-08-01T08:30:21.891Z,49.15
2022-08-01T08:31:25.762Z,48.02
2022-08-01T08:32:45.252Z,48.02
2022-08-01T08:33:47.010Z,49.01
2022-08-01T08:34:48.568Z,49.00
2022-08-01T08:35:53.987Z,46.22
2022-08-01T08:36:58.941Z,45.59
2022-08-01T08:38:00.756Z,45.34
2022-08-01T08:39:04.107Z,43.38
2022-08-01T08:40:07.035Z,42.19
2022-08-01T08:41:10.314Z,41.34
2022-08-01T08:42:12.665Z,40.62
2022-08-01T08:43:16.186Z,40.87
2022-08-01T08:44:18.874Z,41.00
2022-08-01T08:45:20.515Z,39.41
2022-08-01T08:46:44.815Z,39.72
2022-08-01T08:47:47.564Z,39.00
2022-08-01T08:48:52.459Z,38.91
2022-08-01T08:49:56.385Z,39.25
2022-08-01T08:50:58.918Z,37.71
2022-08-01T08:52:02.055Z,37.62
2022-08-01T08:53:06.411Z,35.89
2022-08-01T08:54:11.427Z,35.64
2022-08-01T08:55:15.658Z,36.51
2022-08-01T08:56:18.225Z,34.90
2022-08-01T08:57:21.824Z,34.87
2022-08-01T08:58:31.837Z,33.50
2022-08-01T08:59:33.613Z,33.52
2022-08-01T09:00:36.893Z,35.66
2022-08-01T09:01:38.585Z,36.97
2022-08-01T09:02:47.781Z,38.04
2022-08-01T09:03:49.720Z,39.38
2022-08-01T09:04:52.307Z,39.78
2022-08-01T09:05:54.019Z,41.44
2022-08-01T09:06:56.029Z,41.40
2022-08-01T09:07:57.777Z,40.25
2022-08-01T09:09:00.299Z,39.51
2022-08-01T09:10:02.003Z,40.16
2022-08-01T09:11:04.967Z,41.72
2022-08-01T09:12:07.191Z,42.32
2022-08-01T09:13:11.971Z,40.41
2022-08-01T09:14:16.175Z,39.33
2022-08-01T09:15:18.003Z,36.98
2022-08-01T09:16:19.601Z,37.84
2022-08-01T09:17:21.654Z,38.17
2022-08-01T09:18:29.492Z,38.51
2022-08-01T09:19:41.637Z,38.31
2022-08-01T09:20:43.494Z,39.20
2022-08-01T09:22:00.909Z,39.81
2022-08-01T09:23:03.379Z,40.54
2022-08-01T09:24:15.384Z,39.48
2022-08-01T09:25:18.347Z,39.35
2022-08-01T09:26:34.748Z,39.63
2022-08-01T09:27:44.317Z,39.15
2022-08-01T09:28:49.123Z,39.16
2022-08-01T09:30:01.540Z,38.72
2022-08-01T09:31:11.837Z,39.77
2022-08-01T09:32:16.497Z,40.28
2022-08-01T09:33:21.806Z,42.21
2022-08-01T09:34:29.263Z,43.38
2022-08-01T09:35:43.866Z,44.35
2022-08-01T09:36:56.699Z,45.04
2022-08-01T09:38:18.980Z,45.95
2022-08-01T09:39:22.133Z,45.09
2022-08-01T09:40:23.784Z,44.55
2022-08-01T09:41:39.954Z,41.42
2022-08-01T09:42:42.367Z,39.74
2022-08-01T09:43:51.407Z,40.19
2022-08-01T09:44:55.186Z,40.52
2022-08-01T09:45:58.323Z,41.21
2022-08-01T09:47:00.110Z,41.82
2022-08-01T09:48:10.728Z,43.98
2022-08-01T09:49:12.701Z,43.40
2022-08-01T09:50:14.757Z,45.15
2022-08-01T09:51:59.348Z,45.54
2022-08-01T09:52:55.044Z,45.87
2022-08-01T09:53:56.793Z,46.53
2022-08-01T09:55:05.156Z,45.77
2022-08-01T09:56:13.921Z,46.52
2022-08-01T09:57:18.377Z,46.80
2022-08-01T09:58:21.502Z,44.97
2022-08-01T09:59:56.769Z,46.83
2022-08-01T10:01:04.856Z,42.35
2022-08-01T10:02:08.140Z,43.66
2022-08-01T10:03:30.941Z,44.85
2022-08-01T10:04:32.695Z,43.75
2022-08-01T10:05:37.460Z,43.87
2022-08-01T10:06:41.543Z,45.68
2022-08-01T10:07:58.009Z,43.66
2022-08-01T10:09:02.686Z,44.69
2022-08-01T10:10:16.991Z,44.56
2022-08-01T10:11:18.699Z,44.58
2022-08-01T10:12:24.820Z,43.78
2022-08-01T10:13:36.417Z,42.22
2022-08-01T10:14:39.904Z,41.71
2022-08-01T10:15:43.386Z,40.18
2022-08-01T10:16:53.652Z,37.01
2022-08-01T10:18:16.179Z,36.93
2022-08-01T10:19:29.352Z,36.23
2022-08-01T10:20:35.824Z,35.11
2022-08-01T10:21:54.701Z,34.09
2022-08-01T10:23:05.839Z,34.33
2022-08-01T10:24:10.562Z,34.52
2022-08-01T10:25:13.917Z,34.03
2022-08-01T10:26:17.011Z,31.91
2022-08-01T10:27:24.330Z,33.25
2022-08-01T10:28:41.156Z,33.28
2022-08-01T10:30:05.385Z,32.72
2022-08-01T10:31:12.331Z,34.23
2022-08-01T10:32:14.884Z,33.61
2022-08-01T10:33:50.018Z,32.93
2022-08-01T10:34:38.997Z,30.57
2022-08-01T10:35:48.242Z,30.48
2022-08-01T10:36:49.953Z,30.96
2022-08-01T10:37:57.484Z,31.30
2022-08-01T10:38:59.562Z,31.79
2022-08-01T10:40:28.778Z,32.90
2022-08-01T10:41:25.530Z,34.20
2022-08-01T10:42:29.329Z,34.94
2022-08-01T10:43:31.319Z,36.58
2022-08-01T10:44:34.905Z,36.00
2022-08-01T10:45:37.094Z,35.96
2022-08-01T10:46:45.812Z,34.00
2022-08-01T10:48:10.036Z,34.19
2022-08-01T10:49:16.404Z,34.02
2022-08-01T10:50:32.638Z,35.94
2022-08-01T10:51:52.547Z,37.09
2022-08-01T10:53:24.060Z,36.22
2022-08-01T10:54:40.131Z,35.24
2022-08-01T10:55:57.235Z,35.01
2022-08-01T10:57:01.214Z,33.89
2022-08-01T10:58:08.838Z,31.87
2022-08-01T10:59:11.725Z,30.82
2022-08-01T11:00:18.826Z,30.79
2022-08-01T11:01:27.710Z,30.17
2022-08-01T11:02:32.618Z,32.68
2022-08-01T11:03:56.220Z,32.56
2022-08-01T11:05:04.419Z,33.51
2022-08-01T11:06:06.199Z,32.37
2022-08-01T11:07:19.126Z,34.07
2022-08-01T11:08:28.216Z,35.45
2022-08-01T11:09:52.186Z,35.68
2022-08-01T11:11:04.641Z,37.18
2022-08-01T11:12:13.520Z,37.37
2022-08-01T11:13:53.558Z,37.62
2022-08-01T11:15:02.647Z,39.37
2022-08-01T11:16:27.279Z,40.31
2022-08-01T11:17:48.829Z,42.25
2022-08-01T11:18:53.826Z,42.03
2022-08-01T11:20:24.803Z,39.56
2022-08-01T11:21:57.111Z,37.65
2022-08-01T11:23:07.578Z,37.78
2022-08-01T11:24:09.336Z,35.93
2022-08-01T11:25:11.838Z,34.80
2022-08-01T11:26:17.599Z,34.39
2022-08-01T11:27:24.132Z,33.18
2022-08-01T11:28:33.209Z,32.15
2022-08-01T11:29:36.761Z,32.35
2022-08-01T11:30:38.864Z,32.47
2022-08-01T11:31:41.110Z,33.18
2022-08-01T11:33:11.248Z,32.98
2022-08-01T11:34:13.757Z,32.26
2022-08-01T11:35:18.841Z,34.12
2022-08-01T11:36:36.900Z,34.34
2022-08-01T11:37:43.446Z,36.25
2022-08-01T11:38:58.729Z,36.90
2022-08-01T11:40:26.462Z,39.00
2022-08-01T11:41:38.800Z,39.17
2022-08-01T11:42:41.257Z,40.77
2022-08-01T11:44:02.266Z,40.76
2022-08-01T11:45:04.280Z,41.57
2022-08-01T11:46:06.749Z,41.21
2022-08-01T11:47:13.237Z,41.52
2022-08-01T11:48:20.476Z,38.48
2022-08-01T11:49:33.541Z,37.24
2022-08-01T11:50:37.961Z,36.91
2022-08-01T11:51:40.941Z,36.37
2022-08-01T11:52:43.527Z,35.19
2022-08-01T11:53:47.958Z,32.75
2022-08-01T11:54:50.838Z,33.74
2022-08-01T11:55:54.157Z,32.54
2022-08-01T11:57:08.298Z,31.53
2022-08-01T11:58:22.539Z,31.33
2022-08-01T11:59:37.892Z,31.23
2022-08-01T12:00:43.823Z,29.89
2022-08-01T12:01:45.716Z,30.66
2022-08-01T12:02:57.019Z,30.92
2022-08-01T12:04:00.653Z,30.78
2022-08-01T12:05:12.075Z,31.11
2022-08-01T12:06:14.099Z,30.80
2022-08-01T12:07:16.805Z,29.73
2022-08-01T12:08:34.327Z,30.52
2022-08-01T12:09:35.910Z,29.43
2022-08-01T12:10:49.595Z,29.33
2022-08-01T12:11:51.727Z,30.77
2022-08-01T12:12:54.773Z,30.96
2022-08-01T12:13:56.397Z,32.12
2022-08-01T12:15:01.498Z,32.07
2022-08-01T12:16:08.634Z,32.05
2022-08-01T12:17:10.350Z,30.36
2022-08-01T12:18:12.246Z,32.58
2022-08-01T12:19:19.932Z,33.06
2022-08-01T12:20:23.426Z,32.37
2022-08-01T12:21:25.031Z,32.61
2022-08-01T12:22:27.344Z,33.63
2022-08-01T12:23:28.915Z,33.79
2022-08-01T12:24:30.520Z,33.94
2022-08-01T12:25:32.609Z,34.77
2022-08-01T12:26:43.206Z,34.58
2022-08-01T12:27:47.004Z,35.86
2022-08-01T12:28:49.020Z,36.81
2022-08-01T12:29:50.711Z,36.31
2022-08-01T12:30:52.352Z,37.02
2022-08-01T12:31:54.031Z,35.43
2022-08-01T12:32:55.919Z,35.81
2022-08-01T12:33:57.503Z,37.46
2022-08-01T12:35:18.628Z,38.14
2022-08-01T12:36:29.624Z,39.25
2022-08-01T12:37:31.630Z,37.86
2022-08-01T12:38:34.942Z,38.38
2022-08-01T12:39:40.093Z,37.36
2022-08-01T12:40:45.463Z,35.60
2022-08-01T12:41:47.491Z,34.41
2022-08-01T12:42:51.699Z,34.33
2022-08-01T12:43:53.426Z,34.69
2022-08-01T12:44:56.005Z,35.28
2022-08-01T12:46:01.415Z,33.74
2022-08-01T12:47:05.352Z,33.24
2022-08-01T12:48:14.848Z,34.33
2022-08-01T12:49:17.356Z,33.55
2022-08-01T12:50:23.369Z,33.39
2022-08-01T12:51:25.014Z,33.61
2022-08-01T12:52:27.377Z,34.11
2022-08-01T12:53:40.322Z,34.52
2022-08-01T12:55:10.288Z,34.19
2022-08-01T12:56:12.439Z,33.58
2022-08-01T12:57:24.762Z,32.73
2022-08-01T12:58:33.464Z,33.38
2022-08-01T12:59:35.177Z,33.01
2022-08-01T13:00:40.027Z,33.67
2022-08-01T13:01:43.061Z,33.60
2022-08-01T13:02:46.556Z,32.70
2022-08-01T13:04:07.316Z,31.73
2022-08-01T13:05:10.638Z,29.82
2022-08-01T13:06:17.489Z,32.80
2022-08-01T13:07:19.585Z,30.31
2022-08-01T13:08:31.117Z,31.14
2022-08-01T13:09:33.248Z,29.31
2022-08-01T13:10:35.008Z,28.84
2022-08-01T13:11:37.080Z,30.03
2022-08-01T13:12:40.592Z,30.96
2022-08-01T13:13:43.769Z,31.78
2022-08-01T13:14:45.406Z,32.02
2022-08-01T13:15:47.135Z,32.52
2022-08-01T13:16:57.080Z,33.04
2022-08-01T13:18:01.035Z,33.46
2022-08-01T13:19:03.136Z,33.89
2022-08-01T13:20:05.485Z,34.09
2022-08-01T13:21:52.810Z,34.28
2022-08-01T13:22:53.817Z,35.25
2022-08-01T13:24:14.586Z,36.67
2022-08-01T13:25:19.853Z,36.98
2022-08-01T13:26:41.047Z,36.78
2022-08-01T13:27:53.768Z,38.57
2022-08-01T13:29:09.817Z,38.80
2022-08-01T13:30:21.188Z,39.48
2022-08-01T13:31:34.108Z,38.93
2022-08-01T13:32:35.802Z,39.19
2022-08-01T13:33:54.098Z,40.56
2022-08-01T13:35:09.952Z,39.31
2022-08-01T13:36:12.347Z,39.91
2022-08-01T13:37:15.575Z,39.40
2022-08-01T13:38:17.866Z,39.85
2022-08-01T13:39:38.105Z,40.76
2022-08-01T13:40:39.660Z,42.06
2022-08-01T13:41:43.998Z,40.27
2022-08-01T13:42:45.607Z,40.05
2022-08-01T13:43:58.106Z,39.92
2022-08-01T13:45:01.264Z,37.90
2022-08-01T13:46:04.925Z,37.03
2022-08-01T13:47:14.818Z,36.37
2022-08-01T13:48:19.001Z,35.48
2022-08-01T13:49:22.754Z,35.66
2022-08-01T13:50:24.626Z,35.29
2022-08-01T13:51:26.250Z,35.67
2022-08-01T13:52:27.827Z,34.32
2022-08-01T13:53:29.704Z,34.97
2022-08-01T13:54:32.622Z,36.16
2022-08-01T13:55:35.491Z,35.58
2022-08-01T13:56:37.393Z,34.83
2022-08-01T13:57:39.274Z,33.81
2022-08-01T13:58:40.858Z,34.99
2022-08-01T13:59:42.463Z,34.71
2022-08-01T14:00:44.463Z,36.51
2022-08-01T14:01:47.397Z,36.73
2022-08-01T14:02:49.137Z,37.14
2022-08-01T14:03:52.039Z,36.54
2022-08-01T14:04:55.377Z,37.01
2022-08-01T14:05:58.644Z,36.67
2022-08-01T14:07:04.232Z,37.73
2022-08-01T14:08:09.745Z,37.54